Flight Number: EUR3070 Duration: 10:00
Departure: Lisboa / Portela (LPPT) at 07:30 Distance: 4163 Nm
Arrival: Rio de Janeiro (SBGL) at 17:30 Equipment: A340

Weather Information
Lisboa / Portela, Portugal (LPPT) 38-46N 009-08W 123M Sep 21, 2017 - 09:30 AM EDT / 2017.09.21 1330 UTC
Wind: from the NW (320 degrees) at 13 MPH (11 KT) (direction variable):0
Visibility: greater than 7 mile(s):0
Sky conditions: mostly clear Temperature: 77 F (25 C) Dew Point: 59 F (15 C) Relative Humidity: 53% Pressure (altimeter): 30.06 in. Hg (1018 hPa)
ob: LPPT 211330Z 32011KT 270V360 9999 FEW034 25/15 Q1018 cycle: 13
Sunrise: 06:26 Sunset: 18:31 (UTC)

Galeao, Brazil (SBGL) 22-49S 043-15W 42M Sep 21, 2017 - 10:00 AM EDT / 2017.09.21 1400 UTC
Wind: from the NNW (330 degrees) at 3 MPH (3 KT):0
Visibility: greater than 7 mile(s):0 Temperature: 82 F (28 C) Dew Point: 57 F (14 C) Relative Humidity: 42% Pressure (altimeter): 30.18 in. Hg (1022 hPa)
ob: SBGL 211400Z 33003KT CAVOK 28/14 Q1022 cycle: 14
Sunrise: 08:45 Sunset: 20:46 (UTC)

TAF:2017/09/21 12:27 TAF TAF SBGL 210800Z 2112/2218 05005KT 7000 FEW017 TN20/2209Z TX32/2217Z BECMG 2115/2117 14013KT 9999 FEW030 BECMG 2122/2124 10005KT CAVOK BECMG 2203/2205 05005KT 7000 NSC PROB40 2208/2212 01005KT 4500 BR SCT010 BECMG 2214/2216 14013KT 9999 FEW030 RMK PGU

Previous Pireps for this route
Date Aircraft Flight time Fuel used Landing rate On time
2016-04-05A34008.45135994-163Yes
(pireps marked green are flown by you)

Route map